createdAt,value
2023-10-27T00:00:45.907Z,99.40
2023-10-27T00:04:09.277Z,99.20
2023-10-27T00:07:31.733Z,99.30
2023-10-27T00:10:54.721Z,99.30
2023-10-27T00:14:16.984Z,99.30
2023-10-27T00:17:39.215Z,99.50
2023-10-27T00:21:01.449Z,99.10
2023-10-27T00:24:23.712Z,99.20
2023-10-27T00:27:45.998Z,99.20
2023-10-27T00:31:08.461Z,99.10
2023-10-27T00:34:30.948Z,99.10
2023-10-27T00:37:53.324Z,99.10
2023-10-27T00:41:15.594Z,99.10
2023-10-27T00:44:37.845Z,99.10
2023-10-27T00:48:01.009Z,99.10
2023-10-27T00:51:23.897Z,99.00
2023-10-27T00:54:48.890Z,99.10
2023-10-27T00:58:12.296Z,99.00
2023-10-27T01:01:34.823Z,99.00
2023-10-27T01:04:57.176Z,99.00
2023-10-27T01:08:19.470Z,99.00
2023-10-27T01:11:41.709Z,99.00
2023-10-27T01:15:04.035Z,99.00
2023-10-27T01:18:27.512Z,98.90
2023-10-27T01:21:49.981Z,98.90
2023-10-27T01:25:13.804Z,98.90
2023-10-27T01:28:36.035Z,98.90
2023-10-27T01:31:58.202Z,98.90
2023-10-27T01:35:20.518Z,98.90
2023-10-27T01:38:42.878Z,98.90
2023-10-27T01:42:05.370Z,98.90
2023-10-27T01:45:27.910Z,98.90
2023-10-27T01:48:50.941Z,98.80
2023-10-27T01:52:13.386Z,98.80
2023-10-27T01:55:35.743Z,98.80
2023-10-27T01:58:57.928Z,98.80
2023-10-27T02:02:20.841Z,98.80
2023-10-27T02:05:47.666Z,98.80
2023-10-27T02:09:10.069Z,98.80
2023-10-27T02:12:32.593Z,98.80
2023-10-27T02:15:54.810Z,98.70
2023-10-27T02:19:17.341Z,98.70
2023-10-27T02:22:39.633Z,98.70
2023-10-27T02:26:01.918Z,98.70
2023-10-27T02:29:24.093Z,98.70
2023-10-27T02:32:46.394Z,99.00
2023-10-27T02:36:08.819Z,98.70
2023-10-27T02:39:31.850Z,98.60
2023-10-27T02:42:54.179Z,98.60
2023-10-27T02:46:17.704Z,98.60
2023-10-27T02:49:40.723Z,98.60
2023-10-27T02:53:03.660Z,98.60
2023-10-27T02:56:26.209Z,98.60
2023-10-27T02:59:48.788Z,98.60
2023-10-27T03:03:11.748Z,98.60
2023-10-27T03:06:34.024Z,98.60
2023-10-27T03:09:56.239Z,98.60
2023-10-27T03:13:18.542Z,98.50
2023-10-27T03:16:41.026Z,98.50
2023-10-27T03:20:06.133Z,98.50
2023-10-27T03:23:29.212Z,98.50
2023-10-27T03:26:51.527Z,98.50
2023-10-27T03:30:14.264Z,98.50
2023-10-27T03:33:36.475Z,98.50
2023-10-27T03:36:58.850Z,98.50
2023-10-27T03:40:21.084Z,98.50
2023-10-27T03:43:45.453Z,98.40
2023-10-27T03:47:07.772Z,98.40
2023-10-27T03:50:31.351Z,98.40
2023-10-27T03:53:55.678Z,98.40
2023-10-27T03:57:19.189Z,98.40
2023-10-27T04:00:41.431Z,98.40
2023-10-27T04:04:03.961Z,98.40
2023-10-27T04:07:27.075Z,98.40
2023-10-27T04:10:49.340Z,98.40
2023-10-27T04:14:11.585Z,98.80
2023-10-27T04:17:33.826Z,98.40
2023-10-27T04:20:56.063Z,98.40
2023-10-27T04:24:18.269Z,98.70
2023-10-27T04:27:41.166Z,98.40
2023-10-27T04:31:03.575Z,98.30
2023-10-27T04:34:25.854Z,98.30
2023-10-27T04:37:48.138Z,98.40
2023-10-27T04:41:11.935Z,98.40
2023-10-27T04:44:34.361Z,98.50
2023-10-27T04:47:56.648Z,98.70
2023-10-27T04:51:18.995Z,98.50
2023-10-27T04:54:41.321Z,98.20
2023-10-27T04:58:03.666Z,98.10
2023-10-27T05:01:29.253Z,98.00
2023-10-27T05:04:51.813Z,98.00
2023-10-27T05:08:15.033Z,97.90
2023-10-27T05:11:37.288Z,97.80
2023-10-27T05:14:59.457Z,97.80
2023-10-27T05:18:22.122Z,97.70
2023-10-27T05:21:44.352Z,97.60
2023-10-27T05:25:07.989Z,97.60
2023-10-27T05:28:30.291Z,97.90
2023-10-27T05:31:53.069Z,98.30
2023-10-27T05:35:15.335Z,98.80
2023-10-27T05:38:37.758Z,98.60
2023-10-27T05:41:59.948Z,98.60
2023-10-27T05:45:22.202Z,98.70
2023-10-27T05:48:44.554Z,98.80
2023-10-27T05:52:06.991Z,98.90
2023-10-27T05:55:29.334Z,98.80
2023-10-27T05:58:51.723Z,98.90
2023-10-27T06:02:16.012Z,98.90
2023-10-27T06:05:38.680Z,99.00
2023-10-27T06:09:00.847Z,99.00
2023-10-27T06:12:23.070Z,99.10
2023-10-27T06:15:46.083Z,99.20
2023-10-27T06:19:08.409Z,99.20
2023-10-27T06:22:31.482Z,98.90
2023-10-27T06:25:53.709Z,97.70
2023-10-27T06:29:15.942Z,98.90
2023-10-27T06:32:38.349Z,98.40
2023-10-27T06:36:01.146Z,98.30
2023-10-27T06:39:23.411Z,98.10
2023-10-27T06:42:45.690Z,98.50
2023-10-27T06:46:08.099Z,98.50
2023-10-27T06:49:30.441Z,97.90
2023-10-27T06:52:52.628Z,96.10
2023-10-27T06:56:14.889Z,97.00
2023-10-27T06:59:37.339Z,97.80
2023-10-27T07:02:59.994Z,98.50
2023-10-27T07:06:22.279Z,98.70
2023-10-27T07:09:44.727Z,99.10
2023-10-27T07:13:07.037Z,99.30
2023-10-27T07:16:30.038Z,99.40
2023-10-27T07:19:52.351Z,99.50
2023-10-27T07:23:19.344Z,99.60
2023-10-27T07:26:41.625Z,99.70
2023-10-27T07:30:04.506Z,99.80
2023-10-27T07:33:26.699Z,99.70
2023-10-27T07:36:49.580Z,99.90
2023-10-27T07:40:12.406Z,99.90
2023-10-27T07:43:34.843Z,99.90
2023-10-27T07:46:57.151Z,99.90
2023-10-27T07:50:19.523Z,99.50
2023-10-27T07:53:44.296Z,99.10
2023-10-27T07:57:06.960Z,98.70
2023-10-27T08:00:29.811Z,98.40
2023-10-27T08:03:52.380Z,98.20
2023-10-27T08:07:14.632Z,97.90
2023-10-27T08:10:40.701Z,97.80
2023-10-27T08:14:05.326Z,97.70
2023-10-27T08:17:27.619Z,97.70
2023-10-27T08:20:51.425Z,97.70
2023-10-27T08:24:14.289Z,97.60
2023-10-27T08:27:36.592Z,97.70
2023-10-27T08:30:58.950Z,97.70
2023-10-27T08:34:22.958Z,97.70
2023-10-27T08:37:45.392Z,97.70
2023-10-27T08:41:09.063Z,97.60
2023-10-27T08:44:31.845Z,97.60
2023-10-27T08:47:55.023Z,97.60
2023-10-27T08:51:19.089Z,97.60
2023-10-27T08:54:42.380Z,98.00
2023-10-27T08:58:04.670Z,97.60
2023-10-27T09:01:27.737Z,97.60
2023-10-27T09:04:50.016Z,97.60
2023-10-27T09:08:12.561Z,97.60
2023-10-27T09:11:51.173Z,97.60
2023-10-27T09:15:14.419Z,97.60
2023-10-27T09:18:37.825Z,97.60
2023-10-27T09:22:00.941Z,97.60
2023-10-27T09:25:27.380Z,97.60
2023-10-27T09:29:01.976Z,97.60
2023-10-27T09:32:28.510Z,97.30
2023-10-27T09:35:55.455Z,97.60
2023-10-27T09:39:21.844Z,97.60
2023-10-27T09:42:47.329Z,97.60
2023-10-27T09:46:11.646Z,97.60
2023-10-27T09:49:37.430Z,97.70
2023-10-27T09:53:03.977Z,97.40
2023-10-27T09:56:27.254Z,97.70
2023-10-27T09:59:51.132Z,97.80
2023-10-27T10:03:14.630Z,97.90
2023-10-27T10:06:49.149Z,97.40
2023-10-27T10:10:35.059Z,97.40
2023-10-27T10:13:58.043Z,97.90
2023-10-27T10:17:40.545Z,97.50
2023-10-27T10:21:03.152Z,97.40
2023-10-27T10:24:25.414Z,97.60
2023-10-27T10:28:17.719Z,97.40
2023-10-27T10:31:40.060Z,97.70
2023-10-27T10:35:22.367Z,97.40
2023-10-27T10:39:14.633Z,98.00
2023-10-27T10:43:15.599Z,97.50
2023-10-27T10:46:37.898Z,97.90
2023-10-27T10:50:00.222Z,97.60
2023-10-27T10:53:25.349Z,97.70
2023-10-27T10:56:47.779Z,97.60
2023-10-27T11:00:14.883Z,97.70
2023-10-27T11:03:37.382Z,97.40
2023-10-27T11:07:01.767Z,97.20
2023-10-27T11:10:25.110Z,97.50
2023-10-27T11:13:48.425Z,97.10
2023-10-27T11:17:13.102Z,97.10
2023-10-27T11:20:36.610Z,97.00
2023-10-27T11:23:58.850Z,97.10
2023-10-27T11:27:28.327Z,97.10
2023-10-27T11:31:10.737Z,96.90
2023-10-27T11:34:34.732Z,96.90
2023-10-27T11:38:02.429Z,96.90
2023-10-27T11:41:24.713Z,96.90
2023-10-27T11:44:47.051Z,97.10
2023-10-27T11:48:11.506Z,97.10
2023-10-27T11:51:35.098Z,97.00
2023-10-27T11:54:57.266Z,97.20
2023-10-27T11:58:19.609Z,97.10
2023-10-27T12:01:41.924Z,97.10
2023-10-27T12:05:05.919Z,97.00
2023-10-27T12:08:29.109Z,97.00
2023-10-27T12:11:52.443Z,97.00
2023-10-27T12:15:16.229Z,97.00
2023-10-27T12:18:38.697Z,96.90
2023-10-27T12:22:01.335Z,96.90
2023-10-27T12:25:23.653Z,96.90
2023-10-27T12:28:47.070Z,96.80
2023-10-27T12:32:11.035Z,96.90
2023-10-27T12:35:33.242Z,96.90
2023-10-27T12:38:55.498Z,96.90
2023-10-27T12:42:17.878Z,97.20
2023-10-27T12:45:40.503Z,97.00
2023-10-27T12:49:03.097Z,97.20
2023-10-27T12:52:28.004Z,97.30
2023-10-27T12:55:50.363Z,97.00
2023-10-27T12:59:12.600Z,97.00
2023-10-27T13:02:34.945Z,97.20
2023-10-27T13:05:57.612Z,97.30
2023-10-27T13:09:20.438Z,97.40
2023-10-27T13:12:42.988Z,97.10
2023-10-27T13:16:13.523Z,97.30
2023-10-27T13:19:36.373Z,97.30
2023-10-27T13:22:58.852Z,96.90
2023-10-27T13:26:21.744Z,97.00
2023-10-27T13:29:44.075Z,96.90
2023-10-27T13:33:07.381Z,96.90
2023-10-27T13:36:30.544Z,97.10
2023-10-27T13:39:52.935Z,97.10
2023-10-27T13:43:16.214Z,97.50
2023-10-27T13:46:38.715Z,97.20
2023-10-27T13:50:00.928Z,97.20
2023-10-27T13:53:23.188Z,97.20
2023-10-27T13:56:45.447Z,97.20
2023-10-27T14:00:11.090Z,97.30
2023-10-27T14:03:36.746Z,97.20
2023-10-27T14:06:59.523Z,97.20
2023-10-27T14:10:22.069Z,97.20
2023-10-27T14:13:47.206Z,97.30
2023-10-27T14:17:09.957Z,97.30
2023-10-27T14:20:32.467Z,97.30
2023-10-27T14:23:54.634Z,97.30
2023-10-27T14:27:16.818Z,97.30
2023-10-27T14:30:40.884Z,97.30
2023-10-27T14:34:04.557Z,97.30
2023-10-27T14:37:27.140Z,97.30
2023-10-27T14:40:53.734Z,97.30
2023-10-27T14:44:16.124Z,97.30
2023-10-27T14:47:43.918Z,97.30
2023-10-27T14:51:07.777Z,97.30
2023-10-27T14:54:30.120Z,97.30
2023-10-27T14:57:52.638Z,97.30
2023-10-27T15:01:17.606Z,97.30
2023-10-27T15:04:40.698Z,97.30
2023-10-27T15:08:03.063Z,97.30
2023-10-27T15:11:25.726Z,97.30
2023-10-27T15:14:51.897Z,97.30
2023-10-27T15:18:14.162Z,97.30
2023-10-27T15:21:36.841Z,97.30
2023-10-27T15:24:59.052Z,97.40
2023-10-27T15:28:21.998Z,97.30
2023-10-27T15:31:44.354Z,97.30
2023-10-27T15:35:10.644Z,97.40
2023-10-27T15:38:33.626Z,97.80
2023-10-27T15:41:58.495Z,97.60
2023-10-27T15:45:20.854Z,97.60
2023-10-27T15:48:43.283Z,97.60
2023-10-27T15:52:08.020Z,97.80
2023-10-27T15:55:30.783Z,97.80
2023-10-27T15:58:53.776Z,97.90
2023-10-27T16:02:16.026Z,97.90
2023-10-27T16:05:38.324Z,97.80
2023-10-27T16:09:01.382Z,97.70
2023-10-27T16:12:23.736Z,97.70
2023-10-27T16:15:47.060Z,97.80
2023-10-27T16:19:09.419Z,98.00
2023-10-27T16:22:31.824Z,97.80
2023-10-27T16:25:54.474Z,97.80
2023-10-27T16:29:17.105Z,97.80
2023-10-27T16:32:39.329Z,97.70
2023-10-27T16:36:06.387Z,97.70
2023-10-27T16:39:28.779Z,97.70
2023-10-27T16:42:50.937Z,97.60
2023-10-27T16:46:14.090Z,97.60
2023-10-27T16:49:36.521Z,97.60
2023-10-27T16:53:00.675Z,97.60
2023-10-27T16:56:22.916Z,97.60
2023-10-27T16:59:46.082Z,97.50
2023-10-27T17:03:08.554Z,97.50
2023-10-27T17:06:30.888Z,97.70
2023-10-27T17:09:53.196Z,98.20
2023-10-27T17:13:16.776Z,98.10
2023-10-27T17:16:38.998Z,97.80
2023-10-27T17:20:13.564Z,98.00
2023-10-27T17:23:39.450Z,98.30
2023-10-27T17:27:01.675Z,98.00
2023-10-27T17:30:24.281Z,97.80
2023-10-27T17:33:46.642Z,98.00
2023-10-27T17:37:08.824Z,98.00
2023-10-27T17:40:31.038Z,97.70
2023-10-27T17:43:53.672Z,98.10
2023-10-27T17:47:15.935Z,98.10
2023-10-27T17:50:38.542Z,98.30
2023-10-27T17:54:00.765Z,98.50
2023-10-27T17:57:23.125Z,98.30
2023-10-27T18:00:47.225Z,98.80
2023-10-27T18:04:10.289Z,98.90
2023-10-27T18:07:33.884Z,99.20
2023-10-27T18:10:57.302Z,99.10
2023-10-27T18:14:23.411Z,99.10
2023-10-27T18:17:45.815Z,99.20
2023-10-27T18:21:12.139Z,99.30
2023-10-27T18:24:35.601Z,99.30
2023-10-27T18:27:58.895Z,99.40
2023-10-27T18:31:21.110Z,99.30
2023-10-27T18:34:43.540Z,99.30
2023-10-27T18:38:06.462Z,99.40
2023-10-27T18:41:31.299Z,99.40
2023-10-27T18:44:53.629Z,98.80
2023-10-27T18:48:15.866Z,98.30
2023-10-27T18:51:38.573Z,98.90
2023-10-27T18:55:00.780Z,98.70
2023-10-27T18:58:23.697Z,99.10
2023-10-27T19:01:46.040Z,98.80
2023-10-27T19:05:10.814Z,98.50
2023-10-27T19:08:34.034Z,99.10
2023-10-27T19:11:56.315Z,98.90
2023-10-27T19:15:22.287Z,99.40
2023-10-27T19:18:47.628Z,99.90
2023-10-27T19:22:09.828Z,99.40
2023-10-27T19:25:32.771Z,99.40
2023-10-27T19:28:56.146Z,99.40
2023-10-27T19:32:18.452Z,99.60
2023-10-27T19:35:43.213Z,99.90
2023-10-27T19:39:05.579Z,99.90
2023-10-27T19:42:27.903Z,99.90
2023-10-27T19:45:50.612Z,99.90
2023-10-27T19:49:14.427Z,99.90
2023-10-27T19:52:37.907Z,99.90
2023-10-27T19:56:00.238Z,99.90
2023-10-27T19:59:23.192Z,99.90
2023-10-27T20:02:45.473Z,99.90
2023-10-27T20:06:08.767Z,99.90
2023-10-27T20:09:30.933Z,99.90
2023-10-27T20:12:53.123Z,99.90
2023-10-27T20:16:16.874Z,99.90
2023-10-27T20:19:39.149Z,99.90
2023-10-27T20:23:02.261Z,99.90
2023-10-27T20:26:25.958Z,99.90
2023-10-27T20:29:48.436Z,99.90
2023-10-27T20:33:10.665Z,99.90
2023-10-27T20:36:32.816Z,99.90
2023-10-27T20:39:56.012Z,99.90
2023-10-27T20:43:18.422Z,99.90
2023-10-27T20:46:41.222Z,99.90
2023-10-27T20:50:05.004Z,99.90
2023-10-27T20:53:27.767Z,99.90
2023-10-27T20:56:50.924Z,99.90
2023-10-27T21:00:14.740Z,99.00
2023-10-27T21:03:38.437Z,99.50
2023-10-27T21:07:00.691Z,99.90
2023-10-27T21:10:23.716Z,99.20
2023-10-27T21:13:46.134Z,99.90
2023-10-27T21:17:08.534Z,99.80
2023-10-27T21:20:30.855Z,99.90
2023-10-27T21:23:54.506Z,99.80
2023-10-27T21:27:16.962Z,99.60
2023-10-27T21:30:39.323Z,99.50
2023-10-27T21:34:01.903Z,99.60
2023-10-27T21:37:24.201Z,99.50
2023-10-27T21:40:47.015Z,99.30
2023-10-27T21:44:09.336Z,99.20
2023-10-27T21:47:31.642Z,99.00
2023-10-27T21:51:09.038Z,99.00
2023-10-27T21:54:33.571Z,99.00
2023-10-27T21:57:55.749Z,98.90
2023-10-27T22:01:17.970Z,98.80
2023-10-27T22:04:41.080Z,98.80
2023-10-27T22:08:03.479Z,98.70
2023-10-27T22:11:25.669Z,98.70
2023-10-27T22:14:47.893Z,98.60
2023-10-27T22:18:10.509Z,98.60
2023-10-27T22:21:32.779Z,98.50
2023-10-27T22:24:54.980Z,98.50
2023-10-27T22:28:17.539Z,98.40
2023-10-27T22:31:43.469Z,98.50
2023-10-27T22:35:06.856Z,98.40
2023-10-27T22:38:30.278Z,98.40
2023-10-27T22:41:52.489Z,98.30
2023-10-27T22:45:16.128Z,98.40
2023-10-27T22:48:38.591Z,98.30
2023-10-27T22:52:00.872Z,98.40
2023-10-27T22:55:23.378Z,98.50
2023-10-27T22:58:45.694Z,98.30
2023-10-27T23:02:08.889Z,98.40
2023-10-27T23:05:33.502Z,98.30
2023-10-27T23:12:18.303Z,98.30
2023-10-27T23:15:40.645Z,98.20
2023-10-27T23:19:05.112Z,98.10
2023-10-27T23:22:27.386Z,98.20
2023-10-27T23:25:49.619Z,98.10
2023-10-27T23:29:11.950Z,98.10
2023-10-27T23:32:34.213Z,98.00
2023-10-27T23:36:04.229Z,98.00
2023-10-27T23:39:26.500Z,98.00
2023-10-27T23:42:50.575Z,98.00
2023-10-27T23:46:14.996Z,97.90
2023-10-27T23:49:37.400Z,97.90
2023-10-27T23:52:59.750Z,97.90
2023-10-27T23:56:22.354Z,97.90
2023-10-27T23:59:44.677Z,97.80
